Cominto, Arkansas
Current Conditions -  °F | °C
As of 3:53 AM on Sunday 26 Oct 2014 (Local Time) from KLLQ Reporting Station
Clear Clear  
Wind Chill: 66°   Ceiling: Unl
Heat Index: 66°   Visibility: 10mi
Dew Point: 61°   Wind: 5mph
Humidity: 84%   Direction: 260°W
Pressure: 30.01"   Gusts: NA
Location:  33.5819°N, 91.7907°W
Report Text: KLLQ 260853Z AUTO 26004KT 10SM CLR 19/16 A3001 RMK AO2 SLP160 T01890161 58007
Loading
Personal Weather Stations






























Interactive Weather Map
Tropical Storm Tracking
New forecast layout! Learn more

10-Day Weather Forecast

Advertisements
Track Severe Weather on mobile